sensor_id;sensor_type;location;lat;lon;timestamp;pressure;altitude;pressure_sealevel;temperature
68127;BMP180;54931;52.098;21.006;2023-07-22T00:01:45;99677.00;;;17.90
68127;BMP180;54931;52.098;21.006;2023-07-22T00:04:12;99676.20;;;17.90
68127;BMP180;54931;52.098;21.006;2023-07-22T00:06:39;99673.60;;;17.90
68127;BMP180;54931;52.098;21.006;2023-07-22T00:09:07;99673.40;;;17.90
68127;BMP180;54931;52.098;21.006;2023-07-22T00:11:35;99679.20;;;17.80
68127;BMP180;54931;52.098;21.006;2023-07-22T00:14:02;99675.00;;;17.80
68127;BMP180;54931;52.098;21.006;2023-07-22T00:16:33;99674.20;;;17.80
68127;BMP180;54931;52.098;21.006;2023-07-22T00:19:00;99671.00;;;17.70
68127;BMP180;54931;52.098;21.006;2023-07-22T00:21:29;99670.00;;;17.70
68127;BMP180;54931;52.098;21.006;2023-07-22T00:23:56;99673.00;;;17.60
68127;BMP180;54931;52.098;21.006;2023-07-22T00:26:24;99673.20;;;17.60
68127;BMP180;54931;52.098;21.006;2023-07-22T00:28:51;99672.00;;;17.50
68127;BMP180;54931;52.098;21.006;2023-07-22T00:31:19;99669.60;;;17.40
68127;BMP180;54931;52.098;21.006;2023-07-22T00:33:46;99667.20;;;17.40
68127;BMP180;54931;52.098;21.006;2023-07-22T00:36:13;99667.20;;;17.30
68127;BMP180;54931;52.098;21.006;2023-07-22T00:38:41;99667.80;;;17.30
68127;BMP180;54931;52.098;21.006;2023-07-22T00:41:08;99671.20;;;17.20
68127;BMP180;54931;52.098;21.006;2023-07-22T00:43:36;99667.40;;;17.20
68127;BMP180;54931;52.098;21.006;2023-07-22T00:46:04;99659.20;;;17.10
68127;BMP180;54931;52.098;21.006;2023-07-22T00:48:32;99655.20;;;17.10
68127;BMP180;54931;52.098;21.006;2023-07-22T00:50:59;99660.40;;;17.10
68127;BMP180;54931;52.098;21.006;2023-07-22T00:53:28;99660.00;;;17.00
68127;BMP180;54931;52.098;21.006;2023-07-22T00:55:56;99660.60;;;17.00
68127;BMP180;54931;52.098;21.006;2023-07-22T00:58:23;99657.20;;;17.00
68127;BMP180;54931;52.098;21.006;2023-07-22T01:00:51;99658.20;;;16.94
68127;BMP180;54931;52.098;21.006;2023-07-22T01:03:19;99657.60;;;16.90
68127;BMP180;54931;52.098;21.006;2023-07-22T01:05:48;99655.20;;;16.90
68127;BMP180;54931;52.098;21.006;2023-07-22T01:08:17;99656.80;;;16.90
68127;BMP180;54931;52.098;21.006;2023-07-22T01:10:44;99657.80;;;16.90
68127;BMP180;54931;52.098;21.006;2023-07-22T01:13:11;99660.00;;;16.90
68127;BMP180;54931;52.098;21.006;2023-07-22T01:15:40;99654.20;;;16.90
68127;BMP180;54931;52.098;21.006;2023-07-22T01:18:09;99654.00;;;16.90
68127;BMP180;54931;52.098;21.006;2023-07-22T01:20:37;99655.80;;;16.90
68127;BMP180;54931;52.098;21.006;2023-07-22T01:23:05;99651.60;;;16.90
68127;BMP180;54931;52.098;21.006;2023-07-22T01:25:33;99644.20;;;16.80
68127;BMP180;54931;52.098;21.006;2023-07-22T01:28:01;99636.40;;;16.80
68127;BMP180;54931;52.098;21.006;2023-07-22T01:30:28;99627.80;;;16.76
68127;BMP180;54931;52.098;21.006;2023-07-22T01:32:57;99634.60;;;16.70
68127;BMP180;54931;52.098;21.006;2023-07-22T01:35:24;99630.20;;;16.70
68127;BMP180;54931;52.098;21.006;2023-07-22T01:37:53;99626.40;;;16.70
68127;BMP180;54931;52.098;21.006;2023-07-22T01:40:20;99624.80;;;16.70
68127;BMP180;54931;52.098;21.006;2023-07-22T01:42:50;99621.40;;;16.70
68127;BMP180;54931;52.098;21.006;2023-07-22T01:45:18;99612.00;;;16.70
68127;BMP180;54931;52.098;21.006;2023-07-22T01:47:46;99610.80;;;16.66
68127;BMP180;54931;52.098;21.006;2023-07-22T01:50:13;99614.60;;;16.66
68127;BMP180;54931;52.098;21.006;2023-07-22T01:52:41;99616.80;;;16.60
68127;BMP180;54931;52.098;21.006;2023-07-22T01:55:08;99622.80;;;16.60
68127;BMP180;54931;52.098;21.006;2023-07-22T01:57:38;99622.60;;;16.54
68127;BMP180;54931;52.098;21.006;2023-07-22T02:00:07;99620.20;;;16.50
68127;BMP180;54931;52.098;21.006;2023-07-22T02:02:38;99616.80;;;16.50
68127;BMP180;54931;52.098;21.006;2023-07-22T02:05:06;99616.60;;;16.50
68127;BMP180;54931;52.098;21.006;2023-07-22T02:07:34;99615.00;;;16.42
68127;BMP180;54931;52.098;21.006;2023-07-22T02:10:02;99618.00;;;16.40
68127;BMP180;54931;52.098;21.006;2023-07-22T02:12:31;99618.80;;;16.40
68127;BMP180;54931;52.098;21.006;2023-07-22T02:14:58;99616.60;;;16.32
68127;BMP180;54931;52.098;21.006;2023-07-22T02:17:26;99614.00;;;16.30
68127;BMP180;54931;52.098;21.006;2023-07-22T02:19:54;99611.80;;;16.30
68127;BMP180;54931;52.098;21.006;2023-07-22T02:22:22;99616.80;;;16.20
68127;BMP180;54931;52.098;21.006;2023-07-22T02:24:49;99622.20;;;16.20
68127;BMP180;54931;52.098;21.006;2023-07-22T02:27:16;99620.60;;;16.20
68127;BMP180;54931;52.098;21.006;2023-07-22T02:29:44;99615.80;;;16.16
68127;BMP180;54931;52.098;21.006;2023-07-22T02:32:11;99616.80;;;16.12
68127;BMP180;54931;52.098;21.006;2023-07-22T02:34:38;99615.60;;;16.14
68127;BMP180;54931;52.098;21.006;2023-07-22T02:37:06;99620.80;;;16.12
68127;BMP180;54931;52.098;21.006;2023-07-22T02:39:33;99623.80;;;16.10
68127;BMP180;54931;52.098;21.006;2023-07-22T02:42:00;99625.40;;;16.18
68127;BMP180;54931;52.098;21.006;2023-07-22T02:44:28;99623.20;;;16.20
68127;BMP180;54931;52.098;21.006;2023-07-22T02:46:55;99618.60;;;16.20
68127;BMP180;54931;52.098;21.006;2023-07-22T02:49:23;99610.80;;;16.20
68127;BMP180;54931;52.098;21.006;2023-07-22T02:51:51;99613.60;;;16.20
68127;BMP180;54931;52.098;21.006;2023-07-22T02:54:18;99607.00;;;16.20
68127;BMP180;54931;52.098;21.006;2023-07-22T02:56:45;99605.20;;;16.20
68127;BMP180;54931;52.098;21.006;2023-07-22T02:59:13;99600.60;;;16.20
68127;BMP180;54931;52.098;21.006;2023-07-22T03:01:40;99599.60;;;16.20
68127;BMP180;54931;52.098;21.006;2023-07-22T03:04:08;99597.00;;;16.20
68127;BMP180;54931;52.098;21.006;2023-07-22T03:06:35;99594.60;;;16.24
68127;BMP180;54931;52.098;21.006;2023-07-22T03:09:02;99592.20;;;16.30
68127;BMP180;54931;52.098;21.006;2023-07-22T03:11:31;99589.40;;;16.30
68127;BMP180;54931;52.098;21.006;2023-07-22T03:13:59;99593.20;;;16.30
68127;BMP180;54931;52.098;21.006;2023-07-22T03:16:27;99600.00;;;16.30
68127;BMP180;54931;52.098;21.006;2023-07-22T03:18:54;99599.00;;;16.30
68127;BMP180;54931;52.098;21.006;2023-07-22T03:21:21;99598.20;;;16.22
68127;BMP180;54931;52.098;21.006;2023-07-22T03:23:49;99596.60;;;16.20
68127;BMP180;54931;52.098;21.006;2023-07-22T03:26:17;99597.60;;;16.24
68127;BMP180;54931;52.098;21.006;2023-07-22T03:28:45;99599.00;;;16.20
68127;BMP180;54931;52.098;21.006;2023-07-22T03:31:12;99595.60;;;16.20
68127;BMP180;54931;52.098;21.006;2023-07-22T03:33:40;99598.20;;;16.20
68127;BMP180;54931;52.098;21.006;2023-07-22T03:36:13;99597.40;;;16.20
68127;BMP180;54931;52.098;21.006;2023-07-22T03:38:40;99603.20;;;16.20
68127;BMP180;54931;52.098;21.006;2023-07-22T03:41:08;99600.20;;;16.28
68127;BMP180;54931;52.098;21.006;2023-07-22T03:43:36;99604.20;;;16.30
68127;BMP180;54931;52.098;21.006;2023-07-22T03:46:04;99602.00;;;16.40
68127;BMP180;54931;52.098;21.006;2023-07-22T03:48:32;99599.00;;;16.42
68127;BMP180;54931;52.098;21.006;2023-07-22T03:51:00;99606.20;;;16.50
68127;BMP180;54931;52.098;21.006;2023-07-22T03:53:28;99614.40;;;16.60
68127;BMP180;54931;52.098;21.006;2023-07-22T03:55:55;99613.00;;;16.70
68127;BMP180;54931;52.098;21.006;2023-07-22T03:58:23;99610.20;;;16.82
68127;BMP180;54931;52.098;21.006;2023-07-22T04:00:51;99607.00;;;17.00
68127;BMP180;54931;52.098;21.006;2023-07-22T04:03:18;99610.00;;;17.08
68127;BMP180;54931;52.098;21.006;2023-07-22T04:05:54;99613.80;;;17.10
68127;BMP180;54931;52.098;21.006;2023-07-22T04:08:23;99616.60;;;17.20
68127;BMP180;54931;52.098;21.006;2023-07-22T04:10:57;99615.60;;;17.24
68127;BMP180;54931;52.098;21.006;2023-07-22T04:13:26;99619.20;;;17.30
68127;BMP180;54931;52.098;21.006;2023-07-22T04:15:53;99616.40;;;17.30
68127;BMP180;54931;52.098;21.006;2023-07-22T04:18:23;99624.40;;;17.38
68127;BMP180;54931;52.098;21.006;2023-07-22T04:20:56;99627.20;;;17.40
68127;BMP180;54931;52.098;21.006;2023-07-22T04:23:24;99626.20;;;17.44
68127;BMP180;54931;52.098;21.006;2023-07-22T04:25:52;99626.20;;;17.50
68127;BMP180;54931;52.098;21.006;2023-07-22T04:28:20;99629.00;;;17.50
68127;BMP180;54931;52.098;21.006;2023-07-22T04:30:56;99631.40;;;17.60
68127;BMP180;54931;52.098;21.006;2023-07-22T04:33:26;99638.20;;;17.60
68127;BMP180;54931;52.098;21.006;2023-07-22T04:35:58;99643.40;;;17.60
68127;BMP180;54931;52.098;21.006;2023-07-22T04:38:26;99644.00;;;17.60
68127;BMP180;54931;52.098;21.006;2023-07-22T04:40:54;99643.20;;;17.62
68127;BMP180;54931;52.098;21.006;2023-07-22T04:43:21;99644.00;;;17.70
68127;BMP180;54931;52.098;21.006;2023-07-22T04:45:49;99643.80;;;17.80
68127;BMP180;54931;52.098;21.006;2023-07-22T04:48:20;99646.60;;;17.88
68127;BMP180;54931;52.098;21.006;2023-07-22T04:50:47;99645.80;;;17.90
68127;BMP180;54931;52.098;21.006;2023-07-22T04:53:17;99640.00;;;17.90
68127;BMP180;54931;52.098;21.006;2023-07-22T04:55:45;99642.60;;;17.90
68127;BMP180;54931;52.098;21.006;2023-07-22T04:58:13;99641.60;;;17.90
68127;BMP180;54931;52.098;21.006;2023-07-22T05:00:40;99646.60;;;17.90
68127;BMP180;54931;52.098;21.006;2023-07-22T05:03:09;99647.00;;;17.90
68127;BMP180;54931;52.098;21.006;2023-07-22T05:05:38;99644.60;;;17.90
68127;BMP180;54931;52.098;21.006;2023-07-22T05:08:05;99651.20;;;17.90
68127;BMP180;54931;52.098;21.006;2023-07-22T05:10:37;99654.20;;;17.90
68127;BMP180;54931;52.098;21.006;2023-07-22T05:13:05;99652.20;;;17.90
68127;BMP180;54931;52.098;21.006;2023-07-22T05:15:32;99657.60;;;17.90
68127;BMP180;54931;52.098;21.006;2023-07-22T05:18:00;99658.00;;;17.84
68127;BMP180;54931;52.098;21.006;2023-07-22T05:20:28;99661.40;;;17.80
68127;BMP180;54931;52.098;21.006;2023-07-22T05:22:55;99659.80;;;17.80
68127;BMP180;54931;52.098;21.006;2023-07-22T05:25:23;99662.60;;;17.84
68127;BMP180;54931;52.098;21.006;2023-07-22T05:27:51;99666.60;;;17.90
68127;BMP180;54931;52.098;21.006;2023-07-22T05:30:19;99676.20;;;17.92
68127;BMP180;54931;52.098;21.006;2023-07-22T05:32:47;99676.60;;;18.00
68127;BMP180;54931;52.098;21.006;2023-07-22T05:35:14;99672.40;;;18.00
68127;BMP180;54931;52.098;21.006;2023-07-22T05:37:42;99662.80;;;18.08
68127;BMP180;54931;52.098;21.006;2023-07-22T05:40:10;99662.00;;;18.12
68127;BMP180;54931;52.098;21.006;2023-07-22T05:42:38;99664.20;;;18.22
68127;BMP180;54931;52.098;21.006;2023-07-22T05:45:06;99673.00;;;18.40
68127;BMP180;54931;52.098;21.006;2023-07-22T05:47:33;99671.60;;;18.72
68127;BMP180;54931;52.098;21.006;2023-07-22T05:50:01;99675.60;;;19.24
68127;BMP180;54931;52.098;21.006;2023-07-22T05:52:28;99669.00;;;19.68
68127;BMP180;54931;52.098;21.006;2023-07-22T05:54:56;99669.80;;;20.18
68127;BMP180;54931;52.098;21.006;2023-07-22T05:57:23;99672.80;;;20.58
68127;BMP180;54931;52.098;21.006;2023-07-22T05:59:51;99680.80;;;20.82
68127;BMP180;54931;52.098;21.006;2023-07-22T06:02:18;99674.20;;;21.10
68127;BMP180;54931;52.098;21.006;2023-07-22T06:04:46;99683.00;;;21.40
68127;BMP180;54931;52.098;21.006;2023-07-22T06:07:14;99678.00;;;21.48
68127;BMP180;54931;52.098;21.006;2023-07-22T06:09:42;99683.40;;;21.88
68127;BMP180;54931;52.098;21.006;2023-07-22T06:12:09;99687.00;;;21.88
68127;BMP180;54931;52.098;21.006;2023-07-22T06:14:37;99690.60;;;21.60
68127;BMP180;54931;52.098;21.006;2023-07-22T06:17:04;99693.20;;;21.24
68127;BMP180;54931;52.098;21.006;2023-07-22T06:19:31;99688.20;;;21.00
68127;BMP180;54931;52.098;21.006;2023-07-22T06:21:59;99698.20;;;20.78
68127;BMP180;54931;52.098;21.006;2023-07-22T06:24:26;99700.00;;;20.50
68127;BMP180;54931;52.098;21.006;2023-07-22T06:26:53;99700.40;;;20.40
68127;BMP180;54931;52.098;21.006;2023-07-22T06:29:21;99702.20;;;20.30
68127;BMP180;54931;52.098;21.006;2023-07-22T06:31:48;99700.40;;;20.30
68127;BMP180;54931;52.098;21.006;2023-07-22T06:34:16;99695.40;;;20.20
68127;BMP180;54931;52.098;21.006;2023-07-22T06:36:45;99697.40;;;20.10
68127;BMP180;54931;52.098;21.006;2023-07-22T06:39:12;99706.20;;;20.00
68127;BMP180;54931;52.098;21.006;2023-07-22T06:41:40;99711.20;;;19.90
68127;BMP180;54931;52.098;21.006;2023-07-22T06:44:08;99707.80;;;19.92
68127;BMP180;54931;52.098;21.006;2023-07-22T06:46:36;99706.00;;;19.94
68127;BMP180;54931;52.098;21.006;2023-07-22T06:49:03;99708.00;;;19.90
68127;BMP180;54931;52.098;21.006;2023-07-22T06:51:30;99710.80;;;19.90
68127;BMP180;54931;52.098;21.006;2023-07-22T06:53:58;99717.20;;;19.90
68127;BMP180;54931;52.098;21.006;2023-07-22T06:56:25;99720.60;;;20.00
68127;BMP180;54931;52.098;21.006;2023-07-22T06:58:53;99717.40;;;20.00
68127;BMP180;54931;52.098;21.006;2023-07-22T07:01:21;99712.60;;;20.00
68127;BMP180;54931;52.098;21.006;2023-07-22T07:03:49;99712.20;;;20.10
68127;BMP180;54931;52.098;21.006;2023-07-22T07:06:17;99711.60;;;20.10
68127;BMP180;54931;52.098;21.006;2023-07-22T07:08:45;99712.20;;;20.10
68127;BMP180;54931;52.098;21.006;2023-07-22T07:11:12;99719.00;;;20.10
68127;BMP180;54931;52.098;21.006;2023-07-22T07:13:39;99719.80;;;20.10
68127;BMP180;54931;52.098;21.006;2023-07-22T07:16:32;99718.60;;;20.20
68127;BMP180;54931;52.098;21.006;2023-07-22T07:19:01;99724.00;;;20.40
68127;BMP180;54931;52.098;21.006;2023-07-22T07:21:28;99729.00;;;20.50
68127;BMP180;54931;52.098;21.006;2023-07-22T07:23:56;99726.80;;;20.62
68127;BMP180;54931;52.098;21.006;2023-07-22T07:26:23;99735.00;;;20.74
68127;BMP180;54931;52.098;21.006;2023-07-22T07:28:52;99733.60;;;20.80
68127;BMP180;54931;52.098;21.006;2023-07-22T07:31:20;99731.00;;;20.90
68127;BMP180;54931;52.098;21.006;2023-07-22T07:33:47;99735.60;;;21.00
68127;BMP180;54931;52.098;21.006;2023-07-22T07:36:16;99739.60;;;21.20
68127;BMP180;54931;52.098;21.006;2023-07-22T07:38:44;99740.40;;;21.10
68127;BMP180;54931;52.098;21.006;2023-07-22T07:41:12;99745.80;;;21.10
68127;BMP180;54931;52.098;21.006;2023-07-22T07:43:41;99747.20;;;21.16
68127;BMP180;54931;52.098;21.006;2023-07-22T07:46:16;99749.60;;;21.20
68127;BMP180;54931;52.098;21.006;2023-07-22T07:48:50;99755.20;;;21.20
68127;BMP180;54931;52.098;21.006;2023-07-22T07:51:20;99751.20;;;21.24
68127;BMP180;54931;52.098;21.006;2023-07-22T07:53:49;99763.40;;;21.40
68127;BMP180;54931;52.098;21.006;2023-07-22T07:56:19;99769.40;;;21.44
68127;BMP180;54931;52.098;21.006;2023-07-22T07:58:49;99765.60;;;21.70
68127;BMP180;54931;52.098;21.006;2023-07-22T08:01:17;99763.20;;;21.98
68127;BMP180;54931;52.098;21.006;2023-07-22T08:03:52;99762.40;;;22.10
68127;BMP180;54931;52.098;21.006;2023-07-22T08:06:20;99777.80;;;22.50
68127;BMP180;54931;52.098;21.006;2023-07-22T08:08:50;99777.00;;;22.80
68127;BMP180;54931;52.098;21.006;2023-07-22T08:11:26;99784.40;;;23.18
68127;BMP180;54931;52.098;21.006;2023-07-22T08:13:54;99789.20;;;23.50
68127;BMP180;54931;52.098;21.006;2023-07-22T08:16:25;99786.00;;;23.40
68127;BMP180;54931;52.098;21.006;2023-07-22T08:18:52;99777.80;;;23.40
68127;BMP180;54931;52.098;21.006;2023-07-22T08:21:20;99779.80;;;23.50
68127;BMP180;54931;52.098;21.006;2023-07-22T08:23:47;99784.60;;;23.50
68127;BMP180;54931;52.098;21.006;2023-07-22T08:26:15;99787.00;;;23.58
68127;BMP180;54931;52.098;21.006;2023-07-22T08:28:48;99796.20;;;23.70
68127;BMP180;54931;52.098;21.006;2023-07-22T08:31:15;99802.80;;;23.70
68127;BMP180;54931;52.098;21.006;2023-07-22T08:33:43;99802.00;;;23.64
68127;BMP180;54931;52.098;21.006;2023-07-22T08:36:10;99794.20;;;23.88
68127;BMP180;54931;52.098;21.006;2023-07-22T08:38:38;99800.00;;;24.06
68127;BMP180;54931;52.098;21.006;2023-07-22T08:41:06;99804.80;;;24.10
68127;BMP180;54931;52.098;21.006;2023-07-22T08:43:36;99808.20;;;24.20
68127;BMP180;54931;52.098;21.006;2023-07-22T08:46:07;99809.40;;;24.30
68127;BMP180;54931;52.098;21.006;2023-07-22T08:48:38;99813.60;;;24.18
68127;BMP180;54931;52.098;21.006;2023-07-22T08:51:17;99815.80;;;24.24
68127;BMP180;54931;52.098;21.006;2023-07-22T08:53:46;99823.00;;;24.30
68127;BMP180;54931;52.098;21.006;2023-07-22T08:56:14;99821.20;;;24.58
68127;BMP180;54931;52.098;21.006;2023-07-22T08:58:43;99826.60;;;24.60
68127;BMP180;54931;52.098;21.006;2023-07-22T09:01:12;99830.00;;;24.70
68127;BMP180;54931;52.098;21.006;2023-07-22T09:03:41;99833.00;;;24.84
68127;BMP180;54931;52.098;21.006;2023-07-22T09:06:10;99834.20;;;24.90
68127;BMP180;54931;52.098;21.006;2023-07-22T09:08:38;99835.20;;;24.86
68127;BMP180;54931;52.098;21.006;2023-07-22T09:11:06;99838.40;;;24.90
68127;BMP180;54931;52.098;21.006;2023-07-22T09:13:35;99843.20;;;24.54
68127;BMP180;54931;52.098;21.006;2023-07-22T09:16:05;99839.40;;;24.30
68127;BMP180;54931;52.098;21.006;2023-07-22T09:18:33;99835.00;;;24.70
68127;BMP180;54931;52.098;21.006;2023-07-22T09:21:01;99842.00;;;24.60
68127;BMP180;54931;52.098;21.006;2023-07-22T09:23:37;99839.40;;;24.70
68127;BMP180;54931;52.098;21.006;2023-07-22T09:26:12;99843.80;;;24.92
68127;BMP180;54931;52.098;21.006;2023-07-22T09:28:59;99844.80;;;25.00
68127;BMP180;54931;52.098;21.006;2023-07-22T09:31:27;99851.20;;;25.10
68127;BMP180;54931;52.098;21.006;2023-07-22T09:34:10;99847.40;;;25.00
68127;BMP180;54931;52.098;21.006;2023-07-22T09:36:55;99840.60;;;25.00
68127;BMP180;54931;52.098;21.006;2023-07-22T09:39:24;99841.80;;;24.96
68127;BMP180;54931;52.098;21.006;2023-07-22T09:41:51;99844.20;;;25.00
68127;BMP180;54931;52.098;21.006;2023-07-22T09:44:22;99852.40;;;25.10
68127;BMP180;54931;52.098;21.006;2023-07-22T09:46:51;99847.60;;;25.28
68127;BMP180;54931;52.098;21.006;2023-07-22T09:49:18;99850.00;;;25.24
68127;BMP180;54931;52.098;21.006;2023-07-22T09:51:46;99851.80;;;25.46
68127;BMP180;54931;52.098;21.006;2023-07-22T09:54:14;99854.20;;;25.50
68127;BMP180;54931;52.098;21.006;2023-07-22T09:56:50;99863.40;;;25.20
68127;BMP180;54931;52.098;21.006;2023-07-22T09:59:18;99859.00;;;24.94
68127;BMP180;54931;52.098;21.006;2023-07-22T10:01:48;99863.00;;;24.62
68127;BMP180;54931;52.098;21.006;2023-07-22T10:04:20;99858.00;;;24.58
68127;BMP180;54931;52.098;21.006;2023-07-22T10:06:49;99869.40;;;24.60
68127;BMP180;54931;52.098;21.006;2023-07-22T10:09:17;99868.60;;;24.60
68127;BMP180;54931;52.098;21.006;2023-07-22T10:11:45;99856.20;;;24.80
68127;BMP180;54931;52.098;21.006;2023-07-22T10:14:13;99869.40;;;24.80
68127;BMP180;54931;52.098;21.006;2023-07-22T10:16:44;99870.40;;;24.80
68127;BMP180;54931;52.098;21.006;2023-07-22T10:19:12;99868.00;;;24.80
68127;BMP180;54931;52.098;21.006;2023-07-22T10:21:40;99872.00;;;24.50
68127;BMP180;54931;52.098;21.006;2023-07-22T10:24:10;99867.80;;;24.20
68127;BMP180;54931;52.098;21.006;2023-07-22T10:26:40;99870.00;;;24.30
68127;BMP180;54931;52.098;21.006;2023-07-22T10:29:08;99867.60;;;24.52
68127;BMP180;54931;52.098;21.006;2023-07-22T10:31:37;99862.80;;;24.92
68127;BMP180;54931;52.098;21.006;2023-07-22T10:34:05;99863.40;;;25.26
68127;BMP180;54931;52.098;21.006;2023-07-22T10:36:34;99859.20;;;25.48
68127;BMP180;54931;52.098;21.006;2023-07-22T10:39:03;99862.60;;;25.30
68127;BMP180;54931;52.098;21.006;2023-07-22T10:41:32;99864.00;;;25.30
68127;BMP180;54931;52.098;21.006;2023-07-22T10:44:06;99865.20;;;25.48
68127;BMP180;54931;52.098;21.006;2023-07-22T10:46:38;99869.40;;;25.58
68127;BMP180;54931;52.098;21.006;2023-07-22T10:49:16;99866.40;;;25.68
68127;BMP180;54931;52.098;21.006;2023-07-22T10:51:51;99866.80;;;25.72
68127;BMP180;54931;52.098;21.006;2023-07-22T10:54:34;99871.60;;;25.90
68127;BMP180;54931;52.098;21.006;2023-07-22T10:57:22;99872.00;;;25.80
68127;BMP180;54931;52.098;21.006;2023-07-22T10:59:55;99869.40;;;25.36
68127;BMP180;54931;52.098;21.006;2023-07-22T11:02:26;99868.20;;;25.10
68127;BMP180;54931;52.098;21.006;2023-07-22T11:04:57;99870.20;;;25.16
68127;BMP180;54931;52.098;21.006;2023-07-22T11:07:41;99868.60;;;25.00
68127;BMP180;54931;52.098;21.006;2023-07-22T11:10:15;99866.20;;;25.00
68127;BMP180;54931;52.098;21.006;2023-07-22T11:12:45;99867.60;;;25.00
68127;BMP180;54931;52.098;21.006;2023-07-22T11:15:16;99865.20;;;25.10
68127;BMP180;54931;52.098;21.006;2023-07-22T11:17:45;99867.20;;;25.20
68127;BMP180;54931;52.098;21.006;2023-07-22T11:20:12;99859.20;;;25.34
68127;BMP180;54931;52.098;21.006;2023-07-22T11:22:41;99868.80;;;25.30
68127;BMP180;54931;52.098;21.006;2023-07-22T11:25:08;99862.40;;;25.40
68127;BMP180;54931;52.098;21.006;2023-07-22T11:27:37;99864.00;;;25.38
68127;BMP180;54931;52.098;21.006;2023-07-22T11:30:05;99867.80;;;25.30
68127;BMP180;54931;52.098;21.006;2023-07-22T11:32:33;99874.80;;;25.10
68127;BMP180;54931;52.098;21.006;2023-07-22T11:35:01;99874.60;;;24.80
68127;BMP180;54931;52.098;21.006;2023-07-22T11:37:29;99883.20;;;24.58
68127;BMP180;54931;52.098;21.006;2023-07-22T11:40:03;99876.40;;;24.40
68127;BMP180;54931;52.098;21.006;2023-07-22T11:42:34;99882.20;;;24.30
68127;BMP180;54931;52.098;21.006;2023-07-22T11:45:02;99880.60;;;24.34
68127;BMP180;54931;52.098;21.006;2023-07-22T11:47:30;99881.80;;;24.40
68127;BMP180;54931;52.098;21.006;2023-07-22T11:50:01;99884.60;;;24.50
68127;BMP180;54931;52.098;21.006;2023-07-22T11:52:29;99875.40;;;24.50
68127;BMP180;54931;52.098;21.006;2023-07-22T11:55:01;99881.60;;;24.60
68127;BMP180;54931;52.098;21.006;2023-07-22T11:57:30;99867.00;;;24.86
68127;BMP180;54931;52.098;21.006;2023-07-22T11:59:58;99872.80;;;24.92
68127;BMP180;54931;52.098;21.006;2023-07-22T12:02:28;99876.00;;;25.14
68127;BMP180;54931;52.098;21.006;2023-07-22T12:05:04;99877.20;;;25.10
68127;BMP180;54931;52.098;21.006;2023-07-22T12:07:34;99879.60;;;24.90
68127;BMP180;54931;52.098;21.006;2023-07-22T12:10:07;99879.20;;;24.90
68127;BMP180;54931;52.098;21.006;2023-07-22T12:12:36;99873.80;;;25.00
68127;BMP180;54931;52.098;21.006;2023-07-22T12:15:10;99872.00;;;25.00
68127;BMP180;54931;52.098;21.006;2023-07-22T12:17:55;99873.40;;;24.90
68127;BMP180;54931;52.098;21.006;2023-07-22T12:20:25;99870.80;;;24.80
68127;BMP180;54931;52.098;21.006;2023-07-22T12:22:56;99865.60;;;24.66
68127;BMP180;54931;52.098;21.006;2023-07-22T12:25:25;99872.60;;;24.50
68127;BMP180;54931;52.098;21.006;2023-07-22T12:27:52;99867.60;;;24.30
68127;BMP180;54931;52.098;21.006;2023-07-22T12:30:20;99866.20;;;24.30
68127;BMP180;54931;52.098;21.006;2023-07-22T12:32:48;99860.20;;;24.36
68127;BMP180;54931;52.098;21.006;2023-07-22T12:35:16;99856.20;;;24.62
68127;BMP180;54931;52.098;21.006;2023-07-22T12:37:43;99854.60;;;25.04
68127;BMP180;54931;52.098;21.006;2023-07-22T12:40:11;99852.60;;;25.38
68127;BMP180;54931;52.098;21.006;2023-07-22T12:42:40;99852.60;;;25.50
68127;BMP180;54931;52.098;21.006;2023-07-22T12:45:10;99861.60;;;25.34
68127;BMP180;54931;52.098;21.006;2023-07-22T12:47:38;99864.80;;;25.20
68127;BMP180;54931;52.098;21.006;2023-07-22T12:50:06;99864.40;;;25.10
68127;BMP180;54931;52.098;21.006;2023-07-22T12:52:38;99865.20;;;25.18
68127;BMP180;54931;52.098;21.006;2023-07-22T12:55:06;99860.20;;;25.20
68127;BMP180;54931;52.098;21.006;2023-07-22T12:57:34;99863.40;;;25.20
68127;BMP180;54931;52.098;21.006;2023-07-22T13:00:02;99854.20;;;25.20
68127;BMP180;54931;52.098;21.006;2023-07-22T13:02:36;99855.60;;;25.30
68127;BMP180;54931;52.098;21.006;2023-07-22T13:05:04;99851.80;;;25.30
68127;BMP180;54931;52.098;21.006;2023-07-22T13:07:34;99856.80;;;25.38
68127;BMP180;54931;52.098;21.006;2023-07-22T13:10:02;99859.00;;;25.60
68127;BMP180;54931;52.098;21.006;2023-07-22T13:12:34;99866.80;;;25.90
68127;BMP180;54931;52.098;21.006;2023-07-22T13:15:02;99872.60;;;26.10
68127;BMP180;54931;52.098;21.006;2023-07-22T13:17:31;99870.80;;;25.94
68127;BMP180;54931;52.098;21.006;2023-07-22T13:19:58;99873.00;;;25.70
68127;BMP180;54931;52.098;21.006;2023-07-22T13:22:26;99876.20;;;25.78
68127;BMP180;54931;52.098;21.006;2023-07-22T13:24:53;99871.60;;;25.50
68127;BMP180;54931;52.098;21.006;2023-07-22T13:27:21;99877.40;;;25.50
68127;BMP180;54931;52.098;21.006;2023-07-22T13:29:49;99879.20;;;25.30
68127;BMP180;54931;52.098;21.006;2023-07-22T13:32:16;99892.00;;;25.04
68127;BMP180;54931;52.098;21.006;2023-07-22T13:34:43;99885.60;;;24.90
68127;BMP180;54931;52.098;21.006;2023-07-22T13:37:11;99878.20;;;24.98
68127;BMP180;54931;52.098;21.006;2023-07-22T13:39:39;99890.60;;;25.10
68127;BMP180;54931;52.098;21.006;2023-07-22T13:42:08;99877.40;;;25.40
68127;BMP180;54931;52.098;21.006;2023-07-22T13:44:35;99892.20;;;25.68
68127;BMP180;54931;52.098;21.006;2023-07-22T13:47:03;99891.80;;;25.90
68127;BMP180;54931;52.098;21.006;2023-07-22T13:49:30;99892.20;;;25.60
68127;BMP180;54931;52.098;21.006;2023-07-22T13:51:58;99887.80;;;25.40
68127;BMP180;54931;52.098;21.006;2023-07-22T13:54:25;99896.00;;;25.30
68127;BMP180;54931;52.098;21.006;2023-07-22T13:56:53;99891.80;;;25.30
68127;BMP180;54931;52.098;21.006;2023-07-22T13:59:21;99897.00;;;25.30
68127;BMP180;54931;52.098;21.006;2023-07-22T14:01:48;99891.20;;;25.28
68127;BMP180;54931;52.098;21.006;2023-07-22T14:04:16;99893.00;;;25.10
68127;BMP180;54931;52.098;21.006;2023-07-22T14:06:44;99900.20;;;25.10